| time (UTC) | temp F | wind direction | speed MPH | gust MPH | rain 1hr in | rain 24hr in | rain mn in | humidity % | barometer mb |
| 20260905154112 | 67 | 337 | 3.0 | 3.0 | 0.00 | 0.00 | 0.00 | 61 | 1023.4 |
| 20260905153112 | 67 | 270 | 3.0 | 6.0 | 0.00 | 0.00 | 0.00 | 63 | 1023.4 |
| 20260905152111 | 66 | 247 | 4.0 | 2.0 | 0.00 | 0.00 | 0.00 | 64 | 1023.0 |
| 20260905151111 | 66 | 292 | 4.0 | 5.0 | 0.00 | 0.00 | 0.00 | 64 | 1023.0 |
| 20260905150111 | 67 | 45 | 5.0 | 3.0 | 0.00 | 0.00 | 0.00 | 62 | 1022.8 |
| 20260905145111 | 67 | 270 | 5.0 | 6.0 | 0.00 | 0.00 | 0.00 | 62 | 1022.8 |
| 20260905144111 | 68 | 337 | 7.0 | 8.0 | 0.00 | 0.00 | 0.00 | 61 | 1022.4 |
| 20260905143111 | 68 | 315 | 6.0 | 9.0 | 0.00 | 0.00 | 0.00 | 63 | 1022.4 |
| 20260905140111 | 71 | 337 | 6.0 | 11.0 | 0.00 | 0.00 | 0.00 | 55 | 1021.6 |
| 20260905135110 | 72 | 247 | 6.0 | 5.0 | 0.00 | 0.00 | 0.00 | 55 | 1021.6 |
| 20260905134110 | 72 | 337 | 5.0 | 8.0 | 0.00 | 0.00 | 0.00 | 54 | 1021.4 |
| 20260905133110 | 73 | 292 | 7.0 | 13.0 | 0.00 | 0.00 | 0.00 | 53 | 1021.4 |
| 20260905132110 | 74 | 360 | 5.0 | 11.0 | 0.00 | 0.00 | 0.00 | 51 | 1021.3 |
| 20260905131115 | 75 | 360 | 5.0 | 8.0 | 0.00 | 0.00 | 0.00 | 50 | 1021.3 |
| 20260905130115 | 75 | 292 | 5.0 | 8.0 | 0.00 | 0.00 | 0.00 | 49 | 1021.3 |
| 20260905125115 | 76 | 360 | 3.0 | 2.0 | 0.00 | 0.00 | 0.00 | 50 | 1021.3 |
| 20260905124117 | 75 | 360 | 3.0 | 4.0 | 0.00 | 0.00 | 0.00 | 51 | 1021.4 |
| 20260905123115 | 75 | 67 | 3.0 | 4.0 | 0.00 | 0.00 | 0.00 | 51 | 1021.4 |
| 20260905122115 | 75 | 270 | 4.0 | 4.0 | 0.00 | 0.00 | 0.00 | 50 | 1021.3 |
| 20260905121115 | 75 | 337 | 2.0 | 8.0 | 0.00 | 0.00 | 0.00 | 51 | 1021.3 |
| 20260905115114 | 75 | 360 | 2.0 | 5.0 | 0.00 | 0.00 | 0.00 | 54 | 1021.6 |
| 20260905114115 | 74 | 292 | 3.0 | 4.0 | 0.00 | 0.00 | 0.00 | 56 | 1021.7 |
| 20260905113115 | 74 | 247 | 2.0 | 3.0 | 0.00 | 0.00 | 0.00 | 58 | 1021.7 |
| 20260905105114 | 69 | 157 | 1.0 | 0.0 | 0.00 | 0.00 | 0.00 | 67 | 1021.9 |
| 20260905104114 | 69 | 337 | 0.0 | 2.0 | 0.00 | 0.00 | 0.00 | 69 | 1022.0 |
| 20260905102114 | 67 | 247 | 0.0 | 1.0 | 0.00 | 0.00 | 0.00 | 71 | 1022.2 |
| 20260905101113 | 66 | 112 | 0.0 | 0.0 | 0.00 | 0.00 | 0.00 | 71 | 1022.2 |
| 20260905100113 | 66 | 157 | 0.0 | 0.0 | 0.00 | 0.00 | 0.00 | 72 | 1022.2 |
| 20260905094113 | 65 | 225 | 1.0 | 0.0 | 0.00 | 0.00 | 0.00 | 74 | 1022.1 |
| 20260905093113 | 64 | 135 | 1.0 | 1.0 | 0.00 | 0.00 | 0.00 | 75 | 1022.1 |
| 20260905092113 | 64 | 180 | 1.0 | 0.0 | 0.00 | 0.00 | 0.00 | 73 | 1022.2 |
| 20260905091113 | 64 | 157 | 1.0 | 2.0 | 0.00 | 0.00 | 0.00 | 74 | 1022.2 |
| 20260905090113 | 64 | 135 | 0.0 | 1.0 | 0.00 | 0.00 | 0.00 | 75 | 1021.9 |
| 20260905085113 | 63 | 270 | 0.0 | 0.0 | 0.00 | 0.00 | 0.00 | 73 | 1021.9 |
| 20260905083113 | 63 | 315 | 2.0 | 2.0 | 0.00 | 0.00 | 0.00 | 74 | 1021.7 |
| 20260905082113 | 63 | 315 | 3.0 | 4.0 | 0.00 | 0.00 | 0.00 | 73 | 1021.5 |
| 20260905081113 | 63 | 292 | 3.0 | 3.0 | 0.00 | 0.00 | 0.00 | 71 | 1021.5 |
| 20260905080112 | 64 | 315 | 4.0 | 5.0 | 0.00 | 0.00 | 0.00 | 71 | 1020.9 |
| 20260905075112 | 65 | 360 | 4.0 | 9.0 | 0.00 | 0.00 | 0.00 | 64 | 1020.9 |
| 20260905074113 | 65 | 292 | 4.0 | 3.0 | 0.00 | 0.00 | 0.00 | 64 | 1020.5 |
| 20260905073113 | 65 | 360 | 2.0 | 3.0 | 0.00 | 0.00 | 0.00 | 64 | 1020.5 |
| 20260905072112 | 65 | 360 | 4.0 | 4.0 | 0.00 | 0.00 | 0.00 | 66 | 1020.0 |
| 20260905071112 | 65 | 292 | 4.0 | 4.0 | 0.00 | 0.00 | 0.00 | 68 | 1020.0 |
| 20260905070112 | 64 | 292 | 3.0 | 3.0 | 0.00 | 0.00 | 0.00 | 71 | 1019.9 |
| 20260905065112 | 63 | 202 | 2.0 | 3.0 | 0.00 | 0.00 | 0.00 | 78 | 1019.9 |
| 20260905064112 | 62 | 270 | 1.0 | 1.0 | 0.00 | 0.00 | 0.00 | 80 | 1019.7 |
| 20260905063111 | 62 | 67 | 0.0 | 0.0 | 0.00 | 0.00 | 0.00 | 80 | 1019.7 |
| 20260905062111 | 61 | 315 | 0.0 | 0.0 | 0.00 | 0.00 | 0.00 | 81 | 1019.6 |
| 20260905061111 | 61 | 270 | 0.0 | 0.0 | 0.00 | 0.00 | 0.00 | 81 | 1019.6 |
| 20260905060111 | 61 | 67 | 0.0 | 1.0 | 0.00 | 0.00 | 0.00 | 81 | 1019.4 |
| 20260905055111 | 61 | 180 | 1.0 | 0.0 | 0.00 | 0.00 | 0.00 | 82 | 1019.4 |
| 20260905054111 | 61 | 112 | 1.0 | 1.0 | 0.00 | 0.00 | 0.00 | 81 | 1019.4 |
| 20260905053112 | 61 | 135 | 0.0 | 1.0 | 0.00 | 0.00 | 0.00 | 79 | 1019.4 |
| 20260905052111 | 60 | 360 | 0.0 | 0.0 | 0.00 | 0.00 | 0.00 | 80 | 1019.1 |
| 20260905051112 | 60 | 67 | 0.0 | 0.0 | 0.00 | 0.00 | 0.00 | 81 | 1019.1 |
| 20260905050111 | 60 | 112 | 0.0 | 0.0 | 0.00 | 0.00 | 0.00 | 81 | 1018.8 |
| 20260905045111 | 60 | 360 | 0.0 | 2.0 | 0.00 | 0.00 | 0.00 | 81 | 1018.8 |
| 20260905044111 | 60 | 157 | 0.0 | 0.0 | 0.00 | 0.00 | 0.00 | 80 | 1018.8 |
| 20260905043111 | 60 | 202 | 0.0 | 0.0 | 0.00 | 0.00 | 0.00 | 80 | 1018.8 |
| 20260905042111 | 61 | 180 | 0.0 | 0.0 | 0.00 | 0.00 | 0.00 | 79 | 1018.8 |
| 20260905040110 | 61 | 202 | 0.0 | 0.0 | 0.00 | 0.00 | 0.00 | 80 | 1018.9 |
| 20260905035110 | 61 | 90 | 0.0 | 1.0 | 0.00 | 0.00 | 0.00 | 79 | 1018.9 |
| 20260905034112 | 61 | 157 | 0.0 | 0.0 | 0.00 | 0.00 | 0.00 | 79 | 1018.7 |
| 20260905033112 | 61 | 90 | 0.0 | 0.0 | 0.00 | 0.00 | 0.00 | 78 | 1018.7 |
| 20260905031112 | 61 | 202 | 0.0 | 0.0 | 0.00 | 0.00 | 0.00 | 78 | 1019.0 |
| 20260905030112 | 61 | 135 | 0.0 | 0.0 | 0.00 | 0.00 | 0.00 | 78 | 1018.9 |
| 20260905025112 | 61 | 247 | 0.0 | 0.0 | 0.00 | 0.00 | 0.00 | 77 | 1018.9 |
| 20260905024112 | 61 | 202 | 0.0 | 0.0 | 0.00 | 0.00 | 0.00 | 78 | 1019.0 |
| 20260905023112 | 61 | 90 | 1.0 | 0.0 | 0.00 | 0.00 | 0.00 | 75 | 1019.0 |
| 20260905022112 | 61 | 90 | 0.0 | 3.0 | 0.00 | 0.00 | 0.00 | 74 | 1018.8 |
| 20260905020111 | 61 | 360 | 1.0 | 0.0 | 0.00 | 0.00 | 0.00 | 73 | 1018.8 |
| 20260905014112 | 61 | 360 | 0.0 | 2.0 | 0.00 | 0.00 | 0.00 | 73 | 1018.8 |
| 20260905013111 | 61 | 157 | 0.0 | 0.0 | 0.00 | 0.00 | 0.00 | 72 | 1018.8 |
| 20260905012113 | 61 | 247 | 0.0 | 0.0 | 0.00 | 0.00 | 0.00 | 71 | 1018.8 |
| 20260905011111 | 61 | 157 | 0.0 | 0.0 | 0.00 | 0.00 | 0.00 | 71 | 1018.8 |
| 20260905010111 | 61 | 202 | 0.0 | 0.0 | 0.00 | 0.00 | 0.00 | 70 | 1018.7 |
| 20260905003111 | 60 | 360 | 0.0 | 0.0 | 0.00 | 0.00 | 0.00 | 68 | 1018.6 |
| 20260905002111 | 60 | 135 | 0.0 | 0.0 | 0.00 | 0.00 | 0.00 | 68 | 1018.6 |
| 20260905001111 | 60 | 135 | 0.0 | 0.0 | 0.00 | 0.00 | 0.00 | 66 | 1018.6 |
| 20260905000112 | 60 | 135 | 0.0 | 0.0 | 0.00 | 0.00 | 0.00 | 67 | 1018.6 |
| 20260904235111 | 61 | 90 | 0.0 | 0.0 | 0.00 | 0.00 | 0.00 | 66 | 1018.6 |
| 20260904232110 | 61 | 360 | 0.0 | 0.0 | 0.00 | 0.00 | 0.00 | 66 | 1018.2 |
| 20260904230110 | 61 | 135 | 0.0 | 0.0 | 0.00 | 0.00 | 0.00 | 65 | 1018.2 |
| 20260904225110 | 61 | 202 | 0.0 | 0.0 | 0.00 | 0.00 | 0.00 | 65 | 1018.2 |
| 20260904224110 | 62 | 112 | 0.0 | 1.0 | 0.00 | 0.00 | 0.00 | 64 | 1018.2 |
| 20260904223110 | 62 | 67 | 0.0 | 0.0 | 0.00 | 0.00 | 0.00 | 64 | 1018.2 |
| 20260904222111 | 62 | 67 | 0.0 | 1.0 | 0.00 | 0.00 | 0.00 | 63 | 1018.3 |
| 20260904221110 | 62 | 135 | 0.0 | 0.0 | 0.00 | 0.00 | 0.00 | 63 | 1018.3 |
| 20260904220109 | 63 | 90 | 0.0 | 1.0 | 0.00 | 0.00 | 0.00 | 63 | 1018.1 |
| 20260904215109 | 63 | 180 | 0.0 | 0.0 | 0.00 | 0.00 | 0.00 | 63 | 1018.1 |
| 20260904214109 | 63 | 292 | 0.0 | 0.0 | 0.00 | 0.00 | 0.00 | 63 | 1017.8 |
| 20260904213109 | 64 | 67 | 0.0 | 0.0 | 0.00 | 0.00 | 0.00 | 62 | 1017.8 |
| 20260904212109 | 64 | 180 | 0.0 | 0.0 | 0.00 | 0.00 | 0.00 | 62 | 1017.8 |
| 20260904210113 | 65 | 180 | 0.0 | 0.0 | 0.00 | 0.00 | 0.00 | 60 | 1017.7 |
| 20260904205113 | 65 | 112 | 0.0 | 0.0 | 0.00 | 0.00 | 0.00 | 60 | 1017.7 |
| 20260904204113 | 65 | 157 | 0.0 | 0.0 | 0.00 | 0.00 | 0.00 | 59 | 1017.7 |
| 20260904203113 | 66 | 157 | 0.0 | 0.0 | 0.00 | 0.00 | 0.00 | 59 | 1017.7 |
| 20260904202113 | 66 | 157 | 0.0 | 0.0 | 0.00 | 0.00 | 0.00 | 58 | 1017.6 |
| 20260904201113 | 67 | 135 | 0.0 | 0.0 | 0.00 | 0.00 | 0.00 | 58 | 1017.6 |
| 20260904195113 | 68 | 90 | 0.0 | 2.0 | 0.00 | 0.00 | 0.00 | 57 | 1017.6 |
| 20260904194112 | 68 | 202 | 0.0 | 0.0 | 0.00 | 0.00 | 0.00 | 56 | 1017.1 |
| 20260904193112 | 69 | 135 | 0.0 | 0.0 | 0.00 | 0.00 | 0.00 | 55 | 1017.1 |
| 20260904192113 | 69 | 135 | 0.0 | 0.0 | 0.00 | 0.00 | 0.00 | 55 | 1016.8 |
| 20260904191114 | 70 | 135 | 0.0 | 0.0 | 0.00 | 0.00 | 0.00 | 53 | 1016.8 |
| 20260904190112 | 71 | 22 | 0.0 | 0.0 | 0.00 | 0.00 | 0.00 | 54 | 1016.5 |
| 20260904185112 | 72 | 90 | 0.0 | 0.0 | 0.00 | 0.00 | 0.00 | 53 | 1016.5 |
| 20260904184112 | 72 | 360 | 0.0 | 0.0 | 0.00 | 0.00 | 0.00 | 52 | 1016.2 |
| 20260904183112 | 73 | 202 | 0.0 | 0.0 | 0.00 | 0.00 | 0.00 | 50 | 1016.2 |
| 20260904181112 | 75 | 67 | 0.0 | 0.0 | 0.00 | 0.00 | 0.00 | 47 | 1015.9 |
| 20260904175111 | 77 | 225 | 1.0 | 0.0 | 0.00 | 0.00 | 0.00 | 44 | 1015.8 |
| 20260904174113 | 78 | 135 | 2.0 | 2.0 | 0.00 | 0.00 | 0.00 | 43 | 1015.7 |
| 20260904173111 | 79 | 112 | 2.0 | 3.0 | 0.00 | 0.00 | 0.00 | 43 | 1015.7 |
| 20260904170111 | 82 | 157 | 2.0 | 2.0 | 0.00 | 0.00 | 0.00 | 43 | 1015.6 |
| 20260904165111 | 82 | 225 | 2.0 | 0.0 | 0.00 | 0.00 | 0.00 | 43 | 1015.6 |
| 20260904163111 | 84 | 135 | 2.0 | 2.0 | 0.00 | 0.00 | 0.00 | 44 | 1015.8 |
| 20260904161112 | 85 | 157 | 1.0 | 3.0 | 0.00 | 0.00 | 0.00 | 40 | 1015.9 |
| 20260904160110 | 85 | 247 | 2.0 | 2.0 | 0.00 | 0.00 | 0.00 | 39 | 1016.1 |
| 20260904155110 | 86 | 180 | 2.0 | 0.0 | 0.00 | 0.00 | 0.00 | 39 | 1016.1 |